Elkhorn City, KY (41522)

12:18 PM EDT on September 21, 2014 (GMT -0400)
Ramey Flats | Change Station
CLOSE
Current Station
Personal Weather Station
Location: Clintwood, VA
Elevation: 1795 ft
Nearby Weather Stations

Elev 1795 ft 37.21 °N, 82.44 °W | Updated 19 minutes ago

Overcast
Overcast
72.6 °F
Feels Like 71 °F
N
5.0
Wind Variable Wind from SE
Gusts 7.0 mph

Today
High -- | Low -- °F
--% Chance of Precip.
Yesterday
High -- | Low -- °F
Precip. -- in
7:16 AM 7:27 PM
Waning Crescent, 6% visible
Pressure 30.02 in
Visibility 10.0 miles
Clouds Scattered Clouds 2600 ft
Heat Index 71 °F
Dew Point 68 °F
Humidity 86%
Rainfall 0.00 in
Snow Depth Not available.
UV 6 out of 12
Pollen 4.90 out of 12
Air Quality Not available.
Flu Activity Not available.
METAR KLNP 211555Z AUTO 22013KT 10SM SCT026 22/16 A3002 RMK AO2

More Conditions Fewer Conditions

Pressure 30.02 in
Visibility 10.0 miles
Clouds Scattered Clouds 2600 ft
Heat Index 71 °F
Dew Point 68 °F
Humidity 86%
Rainfall 0.00 in
Snow Depth Not available.
UV 6 out of 12
Pollen 4.90 out of 12
Air Quality Not available.
Flu Activity Not available.
METAR KLNP 211555Z AUTO 22013KT 10SM SCT026 22/16 A3002 RMK AO2

More Conditions Fewer Conditions

10-Day Weather Forecast

Almanac

Astronomy

Sep. 21, 2014 Rise Set
Actual Time 7:16 AM EDT 7:27 PM EDT
Civil Twilight 6:50 AM EDT 7:53 PM EDT
Nautical Twilight 6:19 AM EDT 8:24 PM EDT
Astronomical Twilight 5:48 AM EDT 8:55 PM EDT
Moon 4:51 AM EDT 6:01 PM EDT
Length of Visible Light 13h 03m
Length of Day
12h 11m
Tomorrow will be 2m 22s shorter.
Waning Crescent, 6% of the Moon is Illuminated
Today
Waning Crescent
Sep 24
New
Oct 1
First Quarter
Oct 8
Full
Oct 15
Last Quarter

Today's Extremes

State Highs State Lows

Community

WunderPhotos

Upload Photos

1,755,181 photos uploaded!

Nearby

Snow Depth

Station Depth Elevation
No new snow has been reported.

Earthquake Activity

City Distance Mag. Time & Date
No recent earthquake activity has been reported nearby.
Minimum magnitude displayed is 2.5.

Coastal Water Temperatures

Place Temperature
No Stations Reporting

Nearby Weather Stations